sensor_id;sensor_type;location;lat;lon;timestamp;P1;durP1;ratioP1;P2;durP2;ratioP2
13347;SDS011;6743;49.934;9.138;2022-11-11T00:00:16;1.90;;;1.70;;
13347;SDS011;6743;49.934;9.138;2022-11-11T00:02:42;2.80;;;1.87;;
13347;SDS011;6743;49.934;9.138;2022-11-11T00:05:08;2.33;;;2.03;;
13347;SDS011;6743;49.934;9.138;2022-11-11T00:07:34;2.87;;;2.07;;
13347;SDS011;6743;49.934;9.138;2022-11-11T00:10:00;2.17;;;1.50;;
13347;SDS011;6743;49.934;9.138;2022-11-11T00:12:26;1.63;;;1.53;;
13347;SDS011;6743;49.934;9.138;2022-11-11T00:14:53;2.23;;;2.03;;
13347;SDS011;6743;49.934;9.138;2022-11-11T00:17:18;1.60;;;1.50;;
13347;SDS011;6743;49.934;9.138;2022-11-11T00:20:03;1.60;;;1.50;;
13347;SDS011;6743;49.934;9.138;2022-11-11T00:22:48;2.77;;;2.10;;
13347;SDS011;6743;49.934;9.138;2022-11-11T00:25:33;2.13;;;1.50;;
13347;SDS011;6743;49.934;9.138;2022-11-11T00:27:58;2.20;;;1.97;;
13347;SDS011;6743;49.934;9.138;2022-11-11T00:30:25;2.00;;;1.77;;
13347;SDS011;6743;49.934;9.138;2022-11-11T00:32:51;2.03;;;1.90;;
13347;SDS011;6743;49.934;9.138;2022-11-11T00:35:17;2.57;;;1.53;;
13347;SDS011;6743;49.934;9.138;2022-11-11T00:38:05;2.07;;;1.90;;
13347;SDS011;6743;49.934;9.138;2022-11-11T00:40:32;2.13;;;1.80;;
13347;SDS011;6743;49.934;9.138;2022-11-11T00:42:58;1.93;;;1.83;;
13347;SDS011;6743;49.934;9.138;2022-11-11T00:45:25;1.77;;;1.67;;
13347;SDS011;6743;49.934;9.138;2022-11-11T00:47:51;1.80;;;1.67;;
13347;SDS011;6743;49.934;9.138;2022-11-11T00:50:35;1.50;;;1.40;;
13347;SDS011;6743;49.934;9.138;2022-11-11T00:53:23;2.13;;;1.70;;
13347;SDS011;6743;49.934;9.138;2022-11-11T00:55:51;4.20;;;1.63;;
13347;SDS011;6743;49.934;9.138;2022-11-11T00:58:17;1.33;;;1.23;;
13347;SDS011;6743;49.934;9.138;2022-11-11T01:00:44;1.53;;;1.43;;
13347;SDS011;6743;49.934;9.138;2022-11-11T01:03:10;1.73;;;1.53;;
13347;SDS011;6743;49.934;9.138;2022-11-11T01:05:40;1.70;;;1.60;;
13347;SDS011;6743;49.934;9.138;2022-11-11T01:08:06;2.07;;;1.87;;
13347;SDS011;6743;49.934;9.138;2022-11-11T01:10:32;1.70;;;1.60;;
13347;SDS011;6743;49.934;9.138;2022-11-11T01:13:12;1.63;;;1.53;;
13347;SDS011;6743;49.934;9.138;2022-11-11T01:15:39;1.73;;;1.63;;
13347;SDS011;6743;49.934;9.138;2022-11-11T01:18:08;1.23;;;1.13;;
13347;SDS011;6743;49.934;9.138;2022-11-11T01:20:35;1.60;;;1.50;;
13347;SDS011;6743;49.934;9.138;2022-11-11T01:23:02;1.27;;;1.27;;
13347;SDS011;6743;49.934;9.138;2022-11-11T01:25:29;1.33;;;1.33;;
13347;SDS011;6743;49.934;9.138;2022-11-11T01:27:57;1.50;;;1.13;;
13347;SDS011;6743;49.934;9.138;2022-11-11T01:30:23;1.23;;;1.13;;
13347;SDS011;6743;49.934;9.138;2022-11-11T01:32:49;0.87;;;0.87;;
13347;SDS011;6743;49.934;9.138;2022-11-11T01:35:16;0.90;;;0.90;;
13347;SDS011;6743;49.934;9.138;2022-11-11T01:37:42;1.97;;;1.30;;
13347;SDS011;6743;49.934;9.138;2022-11-11T01:40:08;1.00;;;1.00;;
13347;SDS011;6743;49.934;9.138;2022-11-11T01:42:44;2.03;;;1.20;;
13347;SDS011;6743;49.934;9.138;2022-11-11T01:48:13;0.93;;;0.93;;
13347;SDS011;6743;49.934;9.138;2022-11-11T01:51:00;1.13;;;0.70;;
13347;SDS011;6743;49.934;9.138;2022-11-11T01:53:30;0.87;;;0.77;;
13347;SDS011;6743;49.934;9.138;2022-11-11T01:55:57;1.30;;;1.20;;
13347;SDS011;6743;49.934;9.138;2022-11-11T01:58:25;1.20;;;1.10;;
13347;SDS011;6743;49.934;9.138;2022-11-11T02:00:58;1.17;;;1.13;;
13347;SDS011;6743;49.934;9.138;2022-11-11T02:03:26;1.20;;;1.10;;
13347;SDS011;6743;49.934;9.138;2022-11-11T02:05:56;1.17;;;1.07;;
13347;SDS011;6743;49.934;9.138;2022-11-11T02:08:25;2.30;;;2.10;;
13347;SDS011;6743;49.934;9.138;2022-11-11T02:10:57;1.67;;;1.57;;
13347;SDS011;6743;49.934;9.138;2022-11-11T02:13:25;1.50;;;1.40;;
13347;SDS011;6743;49.934;9.138;2022-11-11T02:16:09;2.00;;;1.20;;
13347;SDS011;6743;49.934;9.138;2022-11-11T02:18:35;1.87;;;1.17;;
13347;SDS011;6743;49.934;9.138;2022-11-11T02:21:01;1.00;;;0.93;;
13347;SDS011;6743;49.934;9.138;2022-11-11T02:23:30;1.57;;;1.30;;
13347;SDS011;6743;49.934;9.138;2022-11-11T02:26:03;1.40;;;1.30;;
13347;SDS011;6743;49.934;9.138;2022-11-11T02:28:31;1.47;;;1.37;;
13347;SDS011;6743;49.934;9.138;2022-11-11T02:30:58;1.30;;;1.20;;
13347;SDS011;6743;49.934;9.138;2022-11-11T02:33:24;1.40;;;1.30;;
13347;SDS011;6743;49.934;9.138;2022-11-11T02:35:51;0.70;;;0.70;;
13347;SDS011;6743;49.934;9.138;2022-11-11T02:38:20;0.80;;;0.80;;
13347;SDS011;6743;49.934;9.138;2022-11-11T02:40:47;1.80;;;1.37;;
13347;SDS011;6743;49.934;9.138;2022-11-11T02:43:28;1.00;;;1.00;;
13347;SDS011;6743;49.934;9.138;2022-11-11T02:45:55;1.47;;;1.10;;
13347;SDS011;6743;49.934;9.138;2022-11-11T02:48:22;1.77;;;1.20;;
13347;SDS011;6743;49.934;9.138;2022-11-11T02:50:49;2.33;;;1.83;;
13347;SDS011;6743;49.934;9.138;2022-11-11T02:53:15;2.07;;;1.30;;
13347;SDS011;6743;49.934;9.138;2022-11-11T02:55:41;3.70;;;1.47;;
13347;SDS011;6743;49.934;9.138;2022-11-11T02:58:08;1.43;;;1.33;;
13347;SDS011;6743;49.934;9.138;2022-11-11T03:00:35;1.13;;;1.10;;
13347;SDS011;6743;49.934;9.138;2022-11-11T03:03:01;3.33;;;1.20;;
13347;SDS011;6743;49.934;9.138;2022-11-11T03:05:27;1.10;;;1.10;;
13347;SDS011;6743;49.934;9.138;2022-11-11T03:07:53;1.00;;;1.00;;
13347;SDS011;6743;49.934;9.138;2022-11-11T03:10:19;0.90;;;0.90;;
13347;SDS011;6743;49.934;9.138;2022-11-11T03:12:45;2.27;;;1.37;;
13347;SDS011;6743;49.934;9.138;2022-11-11T03:15:11;1.20;;;1.10;;
13347;SDS011;6743;49.934;9.138;2022-11-11T03:17:39;1.87;;;1.20;;
13347;SDS011;6743;49.934;9.138;2022-11-11T03:20:06;1.33;;;1.13;;
13347;SDS011;6743;49.934;9.138;2022-11-11T03:23:01;1.40;;;1.30;;
13347;SDS011;6743;49.934;9.138;2022-11-11T03:25:28;2.50;;;1.40;;
13347;SDS011;6743;49.934;9.138;2022-11-11T03:28:03;1.47;;;1.37;;
13347;SDS011;6743;49.934;9.138;2022-11-11T03:30:29;1.83;;;1.60;;
13347;SDS011;6743;49.934;9.138;2022-11-11T03:32:56;1.20;;;1.10;;
13347;SDS011;6743;49.934;9.138;2022-11-11T03:35:22;1.93;;;1.77;;
13347;SDS011;6743;49.934;9.138;2022-11-11T03:37:48;2.30;;;1.40;;
13347;SDS011;6743;49.934;9.138;2022-11-11T03:40:33;1.17;;;1.17;;
13347;SDS011;6743;49.934;9.138;2022-11-11T03:42:59;2.37;;;1.27;;
13347;SDS011;6743;49.934;9.138;2022-11-11T03:45:25;1.93;;;1.70;;
13347;SDS011;6743;49.934;9.138;2022-11-11T03:47:51;0.97;;;0.97;;
13347;SDS011;6743;49.934;9.138;2022-11-11T03:50:19;0.97;;;0.97;;
13347;SDS011;6743;49.934;9.138;2022-11-11T03:52:45;1.17;;;1.00;;
13347;SDS011;6743;49.934;9.138;2022-11-11T03:55:11;1.30;;;1.20;;
13347;SDS011;6743;49.934;9.138;2022-11-11T03:57:39;0.90;;;0.90;;
13347;SDS011;6743;49.934;9.138;2022-11-11T04:00:06;0.90;;;0.90;;
13347;SDS011;6743;49.934;9.138;2022-11-11T04:02:33;1.57;;;0.93;;
13347;SDS011;6743;49.934;9.138;2022-11-11T04:05:17;0.90;;;0.90;;
13347;SDS011;6743;49.934;9.138;2022-11-11T04:08:02;0.97;;;0.70;;
13347;SDS011;6743;49.934;9.138;2022-11-11T04:10:46;1.07;;;1.07;;
13347;SDS011;6743;49.934;9.138;2022-11-11T04:13:12;2.13;;;1.50;;
13347;SDS011;6743;49.934;9.138;2022-11-11T04:15:57;1.27;;;1.17;;
13347;SDS011;6743;49.934;9.138;2022-11-11T04:18:32;1.23;;;1.20;;
13347;SDS011;6743;49.934;9.138;2022-11-11T04:21:17;1.30;;;1.20;;
13347;SDS011;6743;49.934;9.138;2022-11-11T04:24:05;1.47;;;1.17;;
13347;SDS011;6743;49.934;9.138;2022-11-11T04:26:46;1.50;;;1.40;;
13347;SDS011;6743;49.934;9.138;2022-11-11T04:29:12;0.87;;;0.87;;
13347;SDS011;6743;49.934;9.138;2022-11-11T04:31:53;0.90;;;0.90;;
13347;SDS011;6743;49.934;9.138;2022-11-11T04:34:34;0.77;;;0.77;;
13347;SDS011;6743;49.934;9.138;2022-11-11T04:37:00;1.30;;;1.20;;
13347;SDS011;6743;49.934;9.138;2022-11-11T04:39:27;1.07;;;1.00;;
13347;SDS011;6743;49.934;9.138;2022-11-11T04:42:11;1.73;;;1.63;;
13347;SDS011;6743;49.934;9.138;2022-11-11T04:44:37;1.07;;;1.07;;
13347;SDS011;6743;49.934;9.138;2022-11-11T04:47:22;0.80;;;0.80;;
13347;SDS011;6743;49.934;9.138;2022-11-11T04:49:48;1.40;;;1.30;;
13347;SDS011;6743;49.934;9.138;2022-11-11T04:52:14;0.70;;;0.70;;
13347;SDS011;6743;49.934;9.138;2022-11-11T04:54:52;1.27;;;0.60;;
13347;SDS011;6743;49.934;9.138;2022-11-11T04:57:38;0.87;;;0.63;;
13347;SDS011;6743;49.934;9.138;2022-11-11T05:00:06;1.00;;;1.00;;
13347;SDS011;6743;49.934;9.138;2022-11-11T05:02:33;1.33;;;1.23;;
13347;SDS011;6743;49.934;9.138;2022-11-11T05:05:17;0.70;;;0.70;;
13347;SDS011;6743;49.934;9.138;2022-11-11T05:07:43;0.67;;;0.67;;
13347;SDS011;6743;49.934;9.138;2022-11-11T05:10:29;1.00;;;1.00;;
13347;SDS011;6743;49.934;9.138;2022-11-11T05:12:55;0.80;;;0.80;;
13347;SDS011;6743;49.934;9.138;2022-11-11T05:15:41;0.87;;;0.87;;
13347;SDS011;6743;49.934;9.138;2022-11-11T05:18:25;1.00;;;1.00;;
13347;SDS011;6743;49.934;9.138;2022-11-11T05:21:10;1.20;;;1.10;;
13347;SDS011;6743;49.934;9.138;2022-11-11T05:23:48;1.10;;;1.10;;
13347;SDS011;6743;49.934;9.138;2022-11-11T05:26:33;1.03;;;1.03;;
13347;SDS011;6743;49.934;9.138;2022-11-11T05:29:00;1.03;;;1.03;;
13347;SDS011;6743;49.934;9.138;2022-11-11T05:31:26;4.40;;;1.47;;
13347;SDS011;6743;49.934;9.138;2022-11-11T05:33:53;1.60;;;1.50;;
13347;SDS011;6743;49.934;9.138;2022-11-11T05:36:19;0.90;;;0.90;;
13347;SDS011;6743;49.934;9.138;2022-11-11T05:38:45;1.23;;;1.20;;
13347;SDS011;6743;49.934;9.138;2022-11-11T05:41:11;1.70;;;1.30;;
13347;SDS011;6743;49.934;9.138;2022-11-11T05:43:37;1.80;;;1.67;;
13347;SDS011;6743;49.934;9.138;2022-11-11T05:46:03;1.77;;;1.67;;
13347;SDS011;6743;49.934;9.138;2022-11-11T05:48:29;1.10;;;1.00;;
13347;SDS011;6743;49.934;9.138;2022-11-11T05:50:56;1.10;;;1.10;;
13347;SDS011;6743;49.934;9.138;2022-11-11T05:53:22;1.17;;;1.07;;
13347;SDS011;6743;49.934;9.138;2022-11-11T05:55:48;2.77;;;1.30;;
13347;SDS011;6743;49.934;9.138;2022-11-11T05:58:15;1.63;;;1.40;;
13347;SDS011;6743;49.934;9.138;2022-11-11T06:00:42;1.50;;;1.40;;
13347;SDS011;6743;49.934;9.138;2022-11-11T06:03:08;1.50;;;1.40;;
13347;SDS011;6743;49.934;9.138;2022-11-11T06:05:34;2.20;;;1.13;;
13347;SDS011;6743;49.934;9.138;2022-11-11T06:08:00;1.60;;;1.27;;
13347;SDS011;6743;49.934;9.138;2022-11-11T06:10:26;1.33;;;0.80;;
13347;SDS011;6743;49.934;9.138;2022-11-11T06:12:55;0.70;;;0.70;;
13347;SDS011;6743;49.934;9.138;2022-11-11T06:15:28;0.90;;;0.90;;
13347;SDS011;6743;49.934;9.138;2022-11-11T06:17:55;1.57;;;1.30;;
13347;SDS011;6743;49.934;9.138;2022-11-11T06:20:21;0.77;;;0.77;;
13347;SDS011;6743;49.934;9.138;2022-11-11T06:22:47;0.83;;;0.83;;
13347;SDS011;6743;49.934;9.138;2022-11-11T06:25:22;0.77;;;0.77;;
13347;SDS011;6743;49.934;9.138;2022-11-11T06:28:07;0.90;;;0.90;;
13347;SDS011;6743;49.934;9.138;2022-11-11T06:30:33;1.80;;;1.07;;
13347;SDS011;6743;49.934;9.138;2022-11-11T06:33:00;1.23;;;1.13;;
13347;SDS011;6743;49.934;9.138;2022-11-11T06:35:26;1.13;;;0.70;;
13347;SDS011;6743;49.934;9.138;2022-11-11T06:37:52;1.17;;;0.70;;
13347;SDS011;6743;49.934;9.138;2022-11-11T06:40:18;1.30;;;1.20;;
13347;SDS011;6743;49.934;9.138;2022-11-11T06:42:44;0.80;;;0.80;;
13347;SDS011;6743;49.934;9.138;2022-11-11T06:45:10;1.10;;;1.10;;
13347;SDS011;6743;49.934;9.138;2022-11-11T06:47:36;0.73;;;0.73;;
13347;SDS011;6743;49.934;9.138;2022-11-11T06:50:03;1.00;;;1.00;;
13347;SDS011;6743;49.934;9.138;2022-11-11T06:52:29;0.87;;;0.87;;
13347;SDS011;6743;49.934;9.138;2022-11-11T06:54:55;0.70;;;0.70;;
13347;SDS011;6743;49.934;9.138;2022-11-11T06:57:21;0.77;;;0.77;;
13347;SDS011;6743;49.934;9.138;2022-11-11T06:59:48;0.90;;;0.90;;
13347;SDS011;6743;49.934;9.138;2022-11-11T07:02:13;0.80;;;0.80;;
13347;SDS011;6743;49.934;9.138;2022-11-11T07:04:39;1.43;;;1.07;;
13347;SDS011;6743;49.934;9.138;2022-11-11T07:07:06;1.60;;;1.37;;
13347;SDS011;6743;49.934;9.138;2022-11-11T07:09:32;1.47;;;1.37;;
13347;SDS011;6743;49.934;9.138;2022-11-11T07:11:58;3.33;;;1.40;;
13347;SDS011;6743;49.934;9.138;2022-11-11T07:14:25;1.60;;;1.50;;
13347;SDS011;6743;49.934;9.138;2022-11-11T07:16:51;2.00;;;1.70;;
13347;SDS011;6743;49.934;9.138;2022-11-11T07:19:17;1.73;;;1.40;;
13347;SDS011;6743;49.934;9.138;2022-11-11T07:21:43;1.30;;;1.20;;
13347;SDS011;6743;49.934;9.138;2022-11-11T07:24:10;1.47;;;1.37;;
13347;SDS011;6743;49.934;9.138;2022-11-11T07:26:36;5.63;;;1.37;;
13347;SDS011;6743;49.934;9.138;2022-11-11T07:29:02;1.63;;;1.53;;
13347;SDS011;6743;49.934;9.138;2022-11-11T07:31:28;1.57;;;1.47;;
13347;SDS011;6743;49.934;9.138;2022-11-11T07:33:54;1.37;;;1.23;;
13347;SDS011;6743;49.934;9.138;2022-11-11T07:36:20;1.37;;;1.33;;
13347;SDS011;6743;49.934;9.138;2022-11-11T07:38:46;1.20;;;1.13;;
13347;SDS011;6743;49.934;9.138;2022-11-11T07:41:13;2.23;;;2.03;;
13347;SDS011;6743;49.934;9.138;2022-11-11T07:43:38;1.60;;;1.50;;
13347;SDS011;6743;49.934;9.138;2022-11-11T07:46:04;1.33;;;1.30;;
13347;SDS011;6743;49.934;9.138;2022-11-11T07:48:30;2.03;;;1.87;;
13347;SDS011;6743;49.934;9.138;2022-11-11T07:50:56;1.67;;;1.57;;
13347;SDS011;6743;49.934;9.138;2022-11-11T07:53:23;2.00;;;1.57;;
13347;SDS011;6743;49.934;9.138;2022-11-11T07:55:50;1.50;;;1.40;;
13347;SDS011;6743;49.934;9.138;2022-11-11T07:58:16;1.83;;;1.50;;
13347;SDS011;6743;49.934;9.138;2022-11-11T08:00:42;2.53;;;1.60;;
13347;SDS011;6743;49.934;9.138;2022-11-11T08:03:08;1.40;;;1.13;;
13347;SDS011;6743;49.934;9.138;2022-11-11T08:05:34;1.83;;;1.70;;
13347;SDS011;6743;49.934;9.138;2022-11-11T08:08:01;1.73;;;1.63;;
13347;SDS011;6743;49.934;9.138;2022-11-11T08:10:28;1.40;;;1.30;;
13347;SDS011;6743;49.934;9.138;2022-11-11T08:12:54;1.70;;;1.60;;
13347;SDS011;6743;49.934;9.138;2022-11-11T08:15:40;2.30;;;1.40;;
13347;SDS011;6743;49.934;9.138;2022-11-11T08:18:06;2.30;;;2.10;;
13347;SDS011;6743;49.934;9.138;2022-11-11T08:20:32;3.97;;;1.77;;
13347;SDS011;6743;49.934;9.138;2022-11-11T08:22:58;1.83;;;1.73;;
13347;SDS011;6743;49.934;9.138;2022-11-11T08:25:24;2.30;;;2.10;;
13347;SDS011;6743;49.934;9.138;2022-11-11T08:27:55;5.70;;;2.77;;
13347;SDS011;6743;49.934;9.138;2022-11-11T08:30:21;2.67;;;2.43;;
13347;SDS011;6743;49.934;9.138;2022-11-11T08:32:48;1.93;;;1.70;;
13347;SDS011;6743;49.934;9.138;2022-11-11T08:35:21;2.33;;;1.93;;
13347;SDS011;6743;49.934;9.138;2022-11-11T08:37:47;3.13;;;2.50;;
13347;SDS011;6743;49.934;9.138;2022-11-11T08:40:13;2.47;;;1.77;;
13347;SDS011;6743;49.934;9.138;2022-11-11T08:42:39;4.67;;;3.37;;
13347;SDS011;6743;49.934;9.138;2022-11-11T08:45:06;3.00;;;2.23;;
13347;SDS011;6743;49.934;9.138;2022-11-11T08:47:33;3.30;;;2.43;;
13347;SDS011;6743;49.934;9.138;2022-11-11T08:50:00;3.33;;;3.03;;
13347;SDS011;6743;49.934;9.138;2022-11-11T08:52:26;3.23;;;2.77;;
13347;SDS011;6743;49.934;9.138;2022-11-11T08:54:52;3.37;;;2.30;;
13347;SDS011;6743;49.934;9.138;2022-11-11T08:57:18;5.37;;;3.63;;
13347;SDS011;6743;49.934;9.138;2022-11-11T08:59:44;3.00;;;2.23;;
13347;SDS011;6743;49.934;9.138;2022-11-11T09:02:10;2.80;;;2.60;;
13347;SDS011;6743;49.934;9.138;2022-11-11T09:04:37;2.87;;;2.30;;
13347;SDS011;6743;49.934;9.138;2022-11-11T09:07:04;3.23;;;2.50;;
13347;SDS011;6743;49.934;9.138;2022-11-11T09:09:31;3.47;;;2.77;;
13347;SDS011;6743;49.934;9.138;2022-11-11T09:11:57;2.40;;;2.20;;
13347;SDS011;6743;49.934;9.138;2022-11-11T09:14:23;3.93;;;2.83;;
13347;SDS011;6743;49.934;9.138;2022-11-11T09:16:49;3.70;;;2.37;;
13347;SDS011;6743;49.934;9.138;2022-11-11T09:19:15;3.10;;;2.20;;
13347;SDS011;6743;49.934;9.138;2022-11-11T09:21:41;2.43;;;2.23;;
13347;SDS011;6743;49.934;9.138;2022-11-11T09:24:07;2.43;;;2.13;;
13347;SDS011;6743;49.934;9.138;2022-11-11T09:26:33;2.63;;;2.27;;
13347;SDS011;6743;49.934;9.138;2022-11-11T09:28:59;7.70;;;4.07;;
13347;SDS011;6743;49.934;9.138;2022-11-11T09:31:25;3.03;;;2.40;;
13347;SDS011;6743;49.934;9.138;2022-11-11T09:33:51;2.37;;;2.17;;
13347;SDS011;6743;49.934;9.138;2022-11-11T09:36:18;2.70;;;2.23;;
13347;SDS011;6743;49.934;9.138;2022-11-11T09:38:44;2.83;;;2.47;;
13347;SDS011;6743;49.934;9.138;2022-11-11T09:41:14;2.67;;;2.17;;
13347;SDS011;6743;49.934;9.138;2022-11-11T09:43:47;2.93;;;1.70;;
13347;SDS011;6743;49.934;9.138;2022-11-11T09:49:13;4.33;;;2.43;;
13347;SDS011;6743;49.934;9.138;2022-11-11T09:51:51;2.63;;;2.43;;
13347;SDS011;6743;49.934;9.138;2022-11-11T09:54:26;2.90;;;2.70;;
13347;SDS011;6743;49.934;9.138;2022-11-11T09:56:58;3.07;;;2.07;;
13347;SDS011;6743;49.934;9.138;2022-11-11T09:59:28;3.83;;;2.60;;
13347;SDS011;6743;49.934;9.138;2022-11-11T10:02:01;2.90;;;2.13;;
13347;SDS011;6743;49.934;9.138;2022-11-11T10:04:29;3.70;;;2.43;;
13347;SDS011;6743;49.934;9.138;2022-11-11T10:06:59;2.70;;;2.27;;
13347;SDS011;6743;49.934;9.138;2022-11-11T10:09:32;2.90;;;2.43;;
13347;SDS011;6743;49.934;9.138;2022-11-11T10:12:07;2.17;;;1.97;;
13347;SDS011;6743;49.934;9.138;2022-11-11T10:14:37;3.67;;;2.50;;
13347;SDS011;6743;49.934;9.138;2022-11-11T10:17:06;3.47;;;2.53;;
13347;SDS011;6743;49.934;9.138;2022-11-11T10:19:41;3.63;;;2.50;;
13347;SDS011;6743;49.934;9.138;2022-11-11T10:22:18;5.10;;;3.40;;
13347;SDS011;6743;49.934;9.138;2022-11-11T10:24:47;5.10;;;2.67;;
13347;SDS011;6743;49.934;9.138;2022-11-11T10:27:20;1.90;;;1.80;;
13347;SDS011;6743;49.934;9.138;2022-11-11T10:29:47;2.77;;;2.23;;
13347;SDS011;6743;49.934;9.138;2022-11-11T10:32:15;5.57;;;3.47;;
13347;SDS011;6743;49.934;9.138;2022-11-11T10:34:44;4.43;;;3.23;;
13347;SDS011;6743;49.934;9.138;2022-11-11T10:37:14;5.30;;;3.60;;
13347;SDS011;6743;49.934;9.138;2022-11-11T10:40:02;3.13;;;2.50;;
13347;SDS011;6743;49.934;9.138;2022-11-11T10:42:35;4.83;;;3.07;;
13347;SDS011;6743;49.934;9.138;2022-11-11T10:45:01;3.17;;;2.87;;
13347;SDS011;6743;49.934;9.138;2022-11-11T10:47:40;3.27;;;2.97;;
13347;SDS011;6743;49.934;9.138;2022-11-11T10:50:13;3.33;;;3.03;;
13347;SDS011;6743;49.934;9.138;2022-11-11T10:52:43;4.47;;;3.07;;
13347;SDS011;6743;49.934;9.138;2022-11-11T10:55:13;5.37;;;4.00;;
13347;SDS011;6743;49.934;9.138;2022-11-11T10:57:47;4.87;;;3.53;;
13347;SDS011;6743;49.934;9.138;2022-11-11T11:00:18;3.00;;;2.70;;
13347;SDS011;6743;49.934;9.138;2022-11-11T11:02:47;3.70;;;2.80;;
13347;SDS011;6743;49.934;9.138;2022-11-11T11:05:18;3.90;;;2.53;;
13347;SDS011;6743;49.934;9.138;2022-11-11T11:07:52;4.07;;;3.67;;
13347;SDS011;6743;49.934;9.138;2022-11-11T11:10:24;8.83;;;4.07;;
13347;SDS011;6743;49.934;9.138;2022-11-11T11:12:58;8.97;;;4.17;;
13347;SDS011;6743;49.934;9.138;2022-11-11T11:15:29;6.00;;;4.30;;
13347;SDS011;6743;49.934;9.138;2022-11-11T11:17:57;3.93;;;3.37;;
13347;SDS011;6743;49.934;9.138;2022-11-11T11:20:29;6.20;;;4.10;;
13347;SDS011;6743;49.934;9.138;2022-11-11T11:22:55;4.73;;;3.13;;
13347;SDS011;6743;49.934;9.138;2022-11-11T11:25:24;6.77;;;3.63;;
13347;SDS011;6743;49.934;9.138;2022-11-11T11:27:51;4.13;;;2.83;;
13347;SDS011;6743;49.934;9.138;2022-11-11T11:30:29;5.00;;;3.03;;
13347;SDS011;6743;49.934;9.138;2022-11-11T11:32:56;3.60;;;3.23;;
13347;SDS011;6743;49.934;9.138;2022-11-11T11:35:30;5.30;;;3.13;;
13347;SDS011;6743;49.934;9.138;2022-11-11T11:37:58;4.33;;;3.87;;
13347;SDS011;6743;49.934;9.138;2022-11-11T11:40:25;5.97;;;3.87;;
13347;SDS011;6743;49.934;9.138;2022-11-11T11:42:51;5.70;;;3.00;;
13347;SDS011;6743;49.934;9.138;2022-11-11T11:45:20;7.73;;;4.10;;
13347;SDS011;6743;49.934;9.138;2022-11-11T11:47:53;4.13;;;3.00;;
13347;SDS011;6743;49.934;9.138;2022-11-11T11:50:31;3.67;;;3.17;;
13347;SDS011;6743;49.934;9.138;2022-11-11T11:53:09;5.53;;;3.37;;
13347;SDS011;6743;49.934;9.138;2022-11-11T11:55:47;3.47;;;3.03;;
13347;SDS011;6743;49.934;9.138;2022-11-11T11:58:29;4.20;;;3.77;;
13347;SDS011;6743;49.934;9.138;2022-11-11T12:01:18;4.13;;;3.37;;
13347;SDS011;6743;49.934;9.138;2022-11-11T12:04:04;4.00;;;2.93;;
13347;SDS011;6743;49.934;9.138;2022-11-11T12:07:04;3.53;;;2.87;;
13347;SDS011;6743;49.934;9.138;2022-11-11T12:09:39;5.40;;;3.63;;
13347;SDS011;6743;49.934;9.138;2022-11-11T12:12:16;4.00;;;3.47;;
13347;SDS011;6743;49.934;9.138;2022-11-11T12:14:55;3.53;;;3.23;;
13347;SDS011;6743;49.934;9.138;2022-11-11T12:17:29;4.40;;;3.67;;
13347;SDS011;6743;49.934;9.138;2022-11-11T12:20:09;3.80;;;3.10;;
13347;SDS011;6743;49.934;9.138;2022-11-11T12:22:44;5.40;;;3.73;;
13347;SDS011;6743;49.934;9.138;2022-11-11T12:25:30;4.87;;;3.57;;
13347;SDS011;6743;49.934;9.138;2022-11-11T12:28:06;3.93;;;3.37;;
13347;SDS011;6743;49.934;9.138;2022-11-11T12:30:44;4.70;;;3.53;;
13347;SDS011;6743;49.934;9.138;2022-11-11T12:33:19;5.17;;;3.77;;
13347;SDS011;6743;49.934;9.138;2022-11-11T12:36:09;3.90;;;3.47;;
13347;SDS011;6743;49.934;9.138;2022-11-11T12:38:48;6.00;;;3.73;;
13347;SDS011;6743;49.934;9.138;2022-11-11T12:41:19;4.33;;;3.43;;
13347;SDS011;6743;49.934;9.138;2022-11-11T12:43:54;6.60;;;4.43;;
13347;SDS011;6743;49.934;9.138;2022-11-11T12:46:28;6.87;;;4.40;;
13347;SDS011;6743;49.934;9.138;2022-11-11T12:49:02;6.03;;;3.70;;
13347;SDS011;6743;49.934;9.138;2022-11-11T12:51:41;5.50;;;3.70;;
13347;SDS011;6743;49.934;9.138;2022-11-11T12:54:18;5.33;;;3.57;;
13347;SDS011;6743;49.934;9.138;2022-11-11T12:56:53;3.97;;;3.17;;
13347;SDS011;6743;49.934;9.138;2022-11-11T12:59:28;5.43;;;3.77;;
13347;SDS011;6743;49.934;9.138;2022-11-11T13:02:17;5.37;;;4.37;;
13347;SDS011;6743;49.934;9.138;2022-11-11T13:04:57;7.87;;;3.97;;
13347;SDS011;6743;49.934;9.138;2022-11-11T13:07:38;7.20;;;4.17;;
13347;SDS011;6743;49.934;9.138;2022-11-11T13:10:19;6.70;;;4.17;;
13347;SDS011;6743;49.934;9.138;2022-11-11T13:12:54;4.53;;;3.93;;
13347;SDS011;6743;49.934;9.138;2022-11-11T13:15:30;6.10;;;4.27;;
13347;SDS011;6743;49.934;9.138;2022-11-11T13:17:58;12.40;;;5.77;;
13347;SDS011;6743;49.934;9.138;2022-11-11T13:20:34;7.97;;;5.30;;
13347;SDS011;6743;49.934;9.138;2022-11-11T13:23:09;7.77;;;4.33;;
13347;SDS011;6743;49.934;9.138;2022-11-11T13:25:37;8.73;;;6.17;;
13347;SDS011;6743;49.934;9.138;2022-11-11T13:28:12;10.77;;;6.70;;
13347;SDS011;6743;49.934;9.138;2022-11-11T13:30:44;9.37;;;5.60;;
13347;SDS011;6743;49.934;9.138;2022-11-11T13:33:18;6.27;;;4.63;;
13347;SDS011;6743;49.934;9.138;2022-11-11T13:35:47;9.47;;;5.27;;
13347;SDS011;6743;49.934;9.138;2022-11-11T13:38:22;8.40;;;4.87;;
13347;SDS011;6743;49.934;9.138;2022-11-11T13:40:53;5.63;;;3.77;;
13347;SDS011;6743;49.934;9.138;2022-11-11T13:43:23;6.77;;;5.03;;
13347;SDS011;6743;49.934;9.138;2022-11-11T13:45:54;7.90;;;5.33;;
13347;SDS011;6743;49.934;9.138;2022-11-11T13:48:24;9.00;;;6.73;;
13347;SDS011;6743;49.934;9.138;2022-11-11T13:50:52;9.13;;;5.77;;
13347;SDS011;6743;49.934;9.138;2022-11-11T13:53:35;8.13;;;5.30;;
13347;SDS011;6743;49.934;9.138;2022-11-11T13:56:03;9.27;;;4.97;;
13347;SDS011;6743;49.934;9.138;2022-11-11T13:58:32;8.07;;;5.30;;
13347;SDS011;6743;49.934;9.138;2022-11-11T14:01:04;4.67;;;3.73;;
13347;SDS011;6743;49.934;9.138;2022-11-11T14:03:33;9.80;;;4.80;;
13347;SDS011;6743;49.934;9.138;2022-11-11T14:12:21;8.03;;;4.57;;
13347;SDS011;6743;49.934;9.138;2022-11-11T14:14:58;8.23;;;4.03;;
13347;SDS011;6743;49.934;9.138;2022-11-11T14:17:24;5.23;;;3.83;;
13347;SDS011;6743;49.934;9.138;2022-11-11T14:19:54;5.57;;;4.77;;
13347;SDS011;6743;49.934;9.138;2022-11-11T14:22:26;5.50;;;3.80;;
13347;SDS011;6743;49.934;9.138;2022-11-11T14:24:54;7.00;;;4.27;;
13347;SDS011;6743;49.934;9.138;2022-11-11T14:27:34;7.87;;;4.77;;
13347;SDS011;6743;49.934;9.138;2022-11-11T14:30:00;7.47;;;4.43;;
13347;SDS011;6743;49.934;9.138;2022-11-11T14:32:39;8.63;;;5.23;;
13347;SDS011;6743;49.934;9.138;2022-11-11T14:35:24;4.93;;;4.30;;
13347;SDS011;6743;49.934;9.138;2022-11-11T14:47:17;6.93;;;4.40;;
13347;SDS011;6743;49.934;9.138;2022-11-11T14:49:55;7.67;;;4.63;;
13347;SDS011;6743;49.934;9.138;2022-11-11T14:52:25;8.17;;;4.90;;
13347;SDS011;6743;49.934;9.138;2022-11-11T14:57:43;7.00;;;5.33;;
13347;SDS011;6743;49.934;9.138;2022-11-11T15:00:14;6.87;;;4.87;;
13347;SDS011;6743;49.934;9.138;2022-11-11T15:02:46;7.50;;;5.33;;
13347;SDS011;6743;49.934;9.138;2022-11-11T15:05:17;8.97;;;4.80;;
13347;SDS011;6743;49.934;9.138;2022-11-11T15:07:53;9.67;;;5.00;;
13347;SDS011;6743;49.934;9.138;2022-11-11T15:10:55;7.30;;;4.57;;
13347;SDS011;6743;49.934;9.138;2022-11-11T15:13:43;5.10;;;4.03;;
13347;SDS011;6743;49.934;9.138;2022-11-11T15:16:22;6.53;;;4.03;;
13347;SDS011;6743;49.934;9.138;2022-11-11T15:19:09;8.07;;;4.30;;
13347;SDS011;6743;49.934;9.138;2022-11-11T15:21:49;7.37;;;4.87;;
13347;SDS011;6743;49.934;9.138;2022-11-11T15:24:29;7.33;;;4.60;;
13347;SDS011;6743;49.934;9.138;2022-11-11T15:27:04;8.73;;;4.77;;
13347;SDS011;6743;49.934;9.138;2022-11-11T15:29:47;5.13;;;3.57;;
13347;SDS011;6743;49.934;9.138;2022-11-11T15:32:27;8.43;;;5.07;;
13347;SDS011;6743;49.934;9.138;2022-11-11T15:35:08;5.87;;;3.90;;
13347;SDS011;6743;49.934;9.138;2022-11-11T15:37:49;6.83;;;3.87;;
13347;SDS011;6743;49.934;9.138;2022-11-11T15:40:18;5.57;;;3.73;;
13347;SDS011;6743;49.934;9.138;2022-11-11T15:42:45;6.57;;;4.30;;
13347;SDS011;6743;49.934;9.138;2022-11-11T15:45:19;5.57;;;3.97;;
13347;SDS011;6743;49.934;9.138;2022-11-11T15:47:47;7.23;;;3.77;;